createdAt,value
2023-02-18T00:04:43.469Z,20
2023-02-18T00:10:21.298Z,19.9
2023-02-18T00:15:43.077Z,19.9
2023-02-18T00:20:48.734Z,19.9
2023-02-18T00:26:26.583Z,19.9
2023-02-18T00:32:03.263Z,19.9
2023-02-18T00:37:23.881Z,19.9
2023-02-18T00:43:01.876Z,19.9
2023-02-18T00:48:39.047Z,19.9
2023-02-18T00:54:16.308Z,19.9
2023-02-18T00:59:53.420Z,19.9
2023-02-18T01:05:30.534Z,19.9
2023-02-18T01:11:08.280Z,19.8
2023-02-18T01:16:46.491Z,19.9
2023-02-18T01:22:22.743Z,19.9
2023-02-18T01:27:59.615Z,19.8
2023-02-18T01:33:37.987Z,19.8
2023-02-18T01:39:15.310Z,19.8
2023-02-18T01:44:52.318Z,19.8
2023-02-18T01:50:14.124Z,19.8
2023-02-18T01:55:52.271Z,19.8
2023-02-18T02:01:30.224Z,19.8
2023-02-18T02:07:07.307Z,19.8
2023-02-18T02:12:43.825Z,19.8
2023-02-18T02:18:20.191Z,19.8
2023-02-18T02:23:58.298Z,19.8
2023-02-18T02:29:34.867Z,19.8
2023-02-18T02:35:11.997Z,19.8
2023-02-18T02:40:50.235Z,19.8
2023-02-18T02:46:27.861Z,19.7
2023-02-18T02:52:05.422Z,19.7
2023-02-18T02:57:42.932Z,19.7
2023-02-18T03:03:20.189Z,19.7
2023-02-18T03:08:58.194Z,19.7
2023-02-18T03:14:35.804Z,19.7
2023-02-18T03:20:13.368Z,19.7
2023-02-18T03:25:50.757Z,19.7
2023-02-18T03:31:29.139Z,19.6
2023-02-18T03:37:06.985Z,19.6
2023-02-18T03:42:43.119Z,19.6
2023-02-18T03:48:05.109Z,19.6
2023-02-18T03:53:26.176Z,19.6
2023-02-18T03:59:03.474Z,19.6
2023-02-18T04:04:40.966Z,19.6
2023-02-18T04:10:18.254Z,19.6
2023-02-18T04:15:55.098Z,19.6
2023-02-18T04:21:32.341Z,19.6
2023-02-18T04:27:10.159Z,19.6
2023-02-18T04:32:36.068Z,19.6
2023-02-18T04:38:14.171Z,19.6
2023-02-18T04:43:51.595Z,19.6
2023-02-18T04:49:28.949Z,19.6
2023-02-18T04:55:06.027Z,19.6
2023-02-18T05:00:42.378Z,19.6
2023-02-18T05:06:03.749Z,19.6
2023-02-18T05:11:26.195Z,19.6
2023-02-18T05:16:47.949Z,19.6
2023-02-18T05:22:27.612Z,19.6
2023-02-18T05:27:48.702Z,19.6
2023-02-18T05:33:26.377Z,19.6
2023-02-18T05:39:04.743Z,19.5
2023-02-18T05:44:26.511Z,19.5
2023-02-18T05:49:49.496Z,19.5
2023-02-18T05:55:26.888Z,19.5
2023-02-18T06:01:02.930Z,19.5
2023-02-18T06:06:26.112Z,19.4
2023-02-18T06:11:48.186Z,19.4
2023-02-18T06:17:25.959Z,19.4
2023-02-18T06:23:03.401Z,19.4
2023-02-18T06:28:41.569Z,19.4
2023-02-18T06:34:35.004Z,19.4
2023-02-18T06:39:58.015Z,19.4
2023-02-18T06:45:35.053Z,19.4
2023-02-18T06:51:14.946Z,19.4
2023-02-18T06:56:52.036Z,19.4
2023-02-18T07:01:58.692Z,19.4
2023-02-18T07:07:37.197Z,19.3
2023-02-18T07:13:15.122Z,19.3
2023-02-18T07:18:51.868Z,19.3
2023-02-18T07:24:28.999Z,19.2
2023-02-18T07:29:50.473Z,19.2
2023-02-18T07:35:28.220Z,19.1
2023-02-18T07:41:05.128Z,19.1
2023-02-18T07:46:42.906Z,19.1
2023-02-18T07:52:20.807Z,19.1
2023-02-18T07:57:58.729Z,19.1
2023-02-18T08:03:35.801Z,19
2023-02-18T08:09:12.816Z,19
2023-02-18T08:15:00.331Z,19
2023-02-18T08:20:37.827Z,18.9
2023-02-18T08:26:18.720Z,18.9
2023-02-18T08:32:05.904Z,18.9
2023-02-18T08:37:27.619Z,18.9
2023-02-18T08:43:13.359Z,18.9
2023-02-18T08:50:20.365Z,18.9
2023-02-18T08:55:58.382Z,18.8
2023-02-18T09:01:22.366Z,18.9
2023-02-18T09:06:44.929Z,18.8
2023-02-18T09:12:21.519Z,18.8
2023-02-18T09:17:58.230Z,18.8
2023-02-18T09:23:35.366Z,18.8
2023-02-18T09:29:13.042Z,18.8
2023-02-18T09:35:09.367Z,17.5
2023-02-18T09:40:48.547Z,45.1
2023-02-18T09:46:10.495Z,49.1
2023-02-18T09:51:50.515Z,43.3
2023-02-18T09:57:29.868Z,38.3
2023-02-18T10:03:09.550Z,35.1
2023-02-18T10:08:47.338Z,37.1
2023-02-18T10:14:09.504Z,55.8
2023-02-18T10:19:49.589Z,54.3
2023-02-18T10:25:29.031Z,50.4
2023-02-18T10:30:50.512Z,50.8
2023-02-18T10:36:28.517Z,48.1
2023-02-18T10:41:49.576Z,49.3
2023-02-18T10:47:25.696Z,53
2023-02-18T10:53:03.101Z,55.8
2023-02-18T10:58:39.946Z,56
2023-02-18T11:04:18.286Z,50.1
2023-02-18T11:09:55.638Z,43.5
2023-02-18T11:15:30.436Z,39.6
2023-02-18T11:20:51.882Z,36.6
2023-02-18T11:25:58.727Z,34.3
2023-02-18T11:31:20.976Z,32.4
2023-02-18T11:36:43.356Z,49
2023-02-18T11:42:20.829Z,54.4
2023-02-18T11:47:42.264Z,50.4
2023-02-18T11:53:18.374Z,51.1
2023-02-18T11:58:40.834Z,52.6
2023-02-18T12:04:03.044Z,51.8
2023-02-18T12:09:25.157Z,51.1
2023-02-18T12:15:03.309Z,51.2
2023-02-18T12:20:43.666Z,51
2023-02-18T12:26:20.995Z,45.4
2023-02-18T12:31:43.706Z,41.1
2023-02-18T12:37:21.363Z,37.9
2023-02-18T12:43:00.307Z,35.3
2023-02-18T12:48:37.617Z,33.2
2023-02-18T12:54:14.710Z,31.5
2023-02-18T12:59:20.594Z,30.1
2023-02-18T13:04:42.862Z,29.1
2023-02-18T13:10:05.014Z,49.1
2023-02-18T13:15:26.206Z,51.6
2023-02-18T13:21:05.546Z,45.9
2023-02-18T13:26:44.933Z,41.4
2023-02-18T13:32:08.311Z,38.1
2023-02-18T13:37:45.505Z,35.4
2023-02-18T13:43:22.878Z,33.2
2023-02-18T13:48:59.747Z,31.4
2023-02-18T13:54:36.860Z,30.1
2023-02-18T14:00:13.713Z,28.9
2023-02-18T14:05:52.543Z,27.9
2023-02-18T14:11:29.566Z,27.1
2023-02-18T14:17:07.009Z,26.4
2023-02-18T14:22:44.104Z,25.8
2023-02-18T14:28:22.033Z,25.3
2023-02-18T14:33:49.894Z,24.8
2023-02-18T14:39:28.515Z,24.3
2023-02-18T14:44:50.417Z,23.9
2023-02-18T14:50:27.810Z,23.6
2023-02-18T14:56:04.041Z,23.3
2023-02-18T15:01:41.809Z,23
2023-02-18T15:07:20.252Z,22.8
2023-02-18T15:12:58.802Z,22.6
2023-02-18T15:18:21.205Z,22.4
2023-02-18T15:24:01.906Z,22.3
2023-02-18T15:29:39.861Z,22.1
2023-02-18T15:35:03.509Z,21.9
2023-02-18T15:40:40.718Z,21.8
2023-02-18T15:46:19.355Z,21.6
2023-02-18T15:51:50.692Z,21.6
2023-02-18T15:57:28.927Z,21.4
2023-02-18T16:03:07.673Z,21.3
2023-02-18T16:08:46.555Z,21.3
2023-02-18T16:13:54.014Z,21.2
2023-02-18T16:24:20.642Z,21
2023-02-18T16:29:58.486Z,21
2023-02-18T16:35:48.919Z,20.9
2023-02-18T16:41:12.634Z,20.8
2023-02-18T16:46:35.097Z,20.8
2023-02-18T16:52:14.684Z,20.8
2023-02-18T16:57:52.214Z,20.7
2023-02-18T17:03:30.136Z,20.6
2023-02-18T17:09:24.041Z,20.6
2023-02-18T17:14:46.262Z,20.6
2023-02-18T17:20:24.589Z,20.5
2023-02-18T17:26:04.062Z,20.5
2023-02-18T17:31:42.853Z,20.4
2023-02-18T17:37:21.219Z,20.4
2023-02-18T17:43:01.169Z,20.4
2023-02-18T17:48:26.840Z,20.4
2023-02-18T17:54:04.318Z,20.3
2023-02-18T17:59:10.662Z,20.3
2023-02-18T18:04:48.685Z,20.2
2023-02-18T18:10:10.744Z,20.2
2023-02-18T18:15:47.854Z,20.2
2023-02-18T18:21:25.568Z,20.1
2023-02-18T18:27:03.186Z,20.1
2023-02-18T18:32:40.423Z,20.1
2023-02-18T18:38:16.612Z,20.1
2023-02-18T18:43:39.017Z,20.1
2023-02-18T18:49:01.072Z,20.1
2023-02-18T18:54:40.295Z,20
2023-02-18T19:00:21.619Z,20
2023-02-18T19:05:59.050Z,20
2023-02-18T19:11:36.354Z,19.9
2023-02-18T19:17:14.718Z,19.9
2023-02-18T19:22:51.193Z,19.9
2023-02-18T19:28:29.523Z,19.9
2023-02-18T19:34:07.856Z,19.9
2023-02-18T19:39:43.564Z,19.9
2023-02-18T19:45:21.521Z,19.8
2023-02-18T19:50:59.136Z,19.8
2023-02-18T19:56:36.026Z,19.8
2023-02-18T20:02:14.254Z,19.8
2023-02-18T20:07:36.895Z,19.8
2023-02-18T20:13:13.386Z,19.8
2023-02-18T20:18:51.751Z,19.8
2023-02-18T20:24:29.650Z,19.8
2023-02-18T20:30:34.592Z,19.8
2023-02-18T20:36:12.863Z,19.8
2023-02-18T20:42:14.628Z,19.7
2023-02-18T20:47:37.442Z,19.7
2023-02-18T20:53:15.662Z,19.7
2023-02-18T20:58:53.283Z,19.7
2023-02-18T21:04:31.915Z,19.6
2023-02-18T21:10:10.184Z,19.7
2023-02-18T21:15:47.338Z,19.6
2023-02-18T21:21:25.921Z,19.6
2023-02-18T21:26:48.523Z,19.6
2023-02-18T21:32:26.420Z,19.6
2023-02-18T21:38:18.781Z,19.6
2023-02-18T21:43:42.873Z,19.6
2023-02-18T21:49:14.557Z,19.6
2023-02-18T21:54:52.727Z,19.6
2023-02-18T22:00:51.364Z,19.6
2023-02-18T22:06:32.307Z,19.6
2023-02-18T22:12:09.417Z,19.5
2023-02-18T22:17:31.840Z,19.5
2023-02-18T22:23:09.763Z,19.5
2023-02-18T22:28:46.584Z,19.5
2023-02-18T22:34:25.497Z,19.5
2023-02-18T22:40:05.705Z,19.5
2023-02-18T22:45:42.429Z,19.4
2023-02-18T22:51:20.767Z,19.4
2023-02-18T22:56:57.738Z,19.4
2023-02-18T23:02:34.150Z,19.4
2023-02-18T23:08:11.264Z,19.4
2023-02-18T23:13:33.518Z,19.4
2023-02-18T23:19:11.950Z,19.4
2023-02-18T23:24:33.649Z,19.4
2023-02-18T23:30:11.139Z,19.4
2023-02-18T23:35:49.446Z,19.4
2023-02-18T23:41:11.040Z,19.4
2023-02-18T23:46:48.809Z,19.4
2023-02-18T23:52:25.428Z,19.4
2023-02-18T23:58:02.950Z,19.4
